createdAt,value
2023-05-12T00:01:17.468Z,100.00
2023-05-12T00:03:45.961Z,100.00
2023-05-12T00:06:14.016Z,100.00
2023-05-12T00:08:41.996Z,100.00
2023-05-12T00:11:09.934Z,100.00
2023-05-12T00:13:38.265Z,100.00
2023-05-12T00:16:06.675Z,100.00
2023-05-12T00:18:35.931Z,100.00
2023-05-12T00:21:03.711Z,100.00
2023-05-12T00:23:31.448Z,100.00
2023-05-12T00:25:59.040Z,100.00
2023-05-12T00:28:27.187Z,100.00
2023-05-12T00:30:55.178Z,100.00
2023-05-12T00:33:23.252Z,100.00
2023-05-12T00:35:53.151Z,100.00
2023-05-12T00:38:21.091Z,100.00
2023-05-12T00:40:48.858Z,100.00
2023-05-12T00:43:16.563Z,100.00
2023-05-12T00:45:44.722Z,100.00
2023-05-12T00:48:12.908Z,100.00
2023-05-12T00:50:41.782Z,100.00
2023-05-12T00:53:12.552Z,100.00
2023-05-12T00:55:41.880Z,100.00
2023-05-12T00:58:09.900Z,100.00
2023-05-12T01:00:37.520Z,100.00
2023-05-12T01:03:05.902Z,100.00
2023-05-12T01:05:44.135Z,100.00
2023-05-12T01:08:14.151Z,100.00
2023-05-12T01:10:44.956Z,100.00
2023-05-12T01:13:13.923Z,100.00
2023-05-12T01:15:46.074Z,100.00
2023-05-12T01:18:14.554Z,100.00
2023-05-12T01:20:43.313Z,100.00
2023-05-12T01:23:14.800Z,100.00
2023-05-12T01:25:44.375Z,100.00
2023-05-12T01:28:13.995Z,100.00
2023-05-12T01:30:43.926Z,100.00
2023-05-12T01:33:14.151Z,100.00
2023-05-12T01:35:43.022Z,100.00
2023-05-12T01:38:11.240Z,100.00
2023-05-12T01:40:41.307Z,100.00
2023-05-12T01:43:09.224Z,100.00
2023-05-12T01:45:38.865Z,100.00
2023-05-12T01:48:06.747Z,100.00
2023-05-12T01:50:34.456Z,100.00
2023-05-12T01:53:03.884Z,100.00
2023-05-12T01:55:39.674Z,100.00
2023-05-12T01:58:07.707Z,100.00
2023-05-12T02:00:36.297Z,100.00
2023-05-12T02:03:07.582Z,100.00
2023-05-12T02:05:35.975Z,100.00
2023-05-12T02:08:05.182Z,100.00
2023-05-12T02:10:33.049Z,100.00
2023-05-12T02:13:01.050Z,100.00
2023-05-12T02:15:29.509Z,100.00
2023-05-12T02:17:58.576Z,100.00
2023-05-12T02:20:29.908Z,100.00
2023-05-12T02:22:57.866Z,100.00
2023-05-12T02:25:25.323Z,100.00
2023-05-12T02:27:53.173Z,100.00
2023-05-12T02:30:21.204Z,100.00
2023-05-12T02:32:49.221Z,100.00
2023-05-12T02:35:17.202Z,100.00
2023-05-12T02:37:46.204Z,100.00
2023-05-12T02:40:14.434Z,100.00
2023-05-12T02:42:43.576Z,100.00
2023-05-12T02:45:11.952Z,100.00
2023-05-12T02:47:40.664Z,100.00
2023-05-12T02:50:09.121Z,100.00
2023-05-12T02:52:36.942Z,100.00
2023-05-12T02:55:06.220Z,100.00
2023-05-12T02:57:34.364Z,100.00
2023-05-12T03:00:02.501Z,100.00
2023-05-12T03:02:31.062Z,100.00
2023-05-12T03:04:59.376Z,100.00
2023-05-12T03:07:27.738Z,100.00
2023-05-12T03:09:58.617Z,100.00
2023-05-12T03:12:29.531Z,100.00
2023-05-12T03:14:57.872Z,100.00
2023-05-12T03:17:26.868Z,100.00
2023-05-12T03:19:54.634Z,100.00
2023-05-12T03:22:22.286Z,100.00
2023-05-12T03:24:50.513Z,100.00
2023-05-12T03:27:18.308Z,100.00
2023-05-12T03:29:47.279Z,100.00
2023-05-12T03:32:15.155Z,100.00
2023-05-12T03:34:43.051Z,100.00
2023-05-12T03:37:10.669Z,100.00
2023-05-12T03:39:39.257Z,100.00
2023-05-12T03:42:07.294Z,100.00
2023-05-12T03:44:35.588Z,100.00
2023-05-12T03:47:04.574Z,100.00
2023-05-12T03:49:32.593Z,100.00
2023-05-12T03:52:00.188Z,100.00
2023-05-12T03:54:30.826Z,100.00
2023-05-12T03:56:59.044Z,100.00
2023-05-12T03:59:27.133Z,100.00
2023-05-12T04:01:55.864Z,100.00
2023-05-12T04:04:25.296Z,100.00
2023-05-12T04:06:53.181Z,100.00
2023-05-12T04:09:21.463Z,100.00
2023-05-12T04:11:49.148Z,100.00
2023-05-12T04:14:17.289Z,100.00
2023-05-12T04:16:45.091Z,100.00
2023-05-12T04:19:12.702Z,100.00
2023-05-12T04:21:41.737Z,100.00
2023-05-12T04:24:10.170Z,100.00
2023-05-12T04:26:38.499Z,100.00
2023-05-12T04:29:06.673Z,100.00
2023-05-12T04:31:34.634Z,100.00
2023-05-12T04:34:04.255Z,100.00
2023-05-12T04:36:33.644Z,100.00
2023-05-12T04:39:03.643Z,100.00
2023-05-12T04:41:32.984Z,100.00
2023-05-12T04:44:01.232Z,100.00
2023-05-12T04:46:29.259Z,100.00
2023-05-12T04:48:57.183Z,100.00
2023-05-12T04:51:26.317Z,100.00
2023-05-12T04:53:54.198Z,100.00
2023-05-12T04:56:23.811Z,100.00
2023-05-12T04:58:51.966Z,100.00
2023-05-12T05:01:20.129Z,100.00
2023-05-12T05:03:48.577Z,100.00
2023-05-12T05:06:16.624Z,100.00
2023-05-12T05:08:44.508Z,100.00
2023-05-12T05:11:13.467Z,100.00
2023-05-12T05:13:43.215Z,100.00
2023-05-12T05:16:11.058Z,100.00
2023-05-12T05:18:42.750Z,100.00
2023-05-12T05:21:10.832Z,100.00
2023-05-12T05:23:38.739Z,100.00
2023-05-12T05:26:07.806Z,100.00
2023-05-12T05:28:35.556Z,100.00
2023-05-12T05:31:04.927Z,100.00
2023-05-12T05:33:32.878Z,100.00
2023-05-12T05:36:00.714Z,100.00
2023-05-12T05:38:29.625Z,100.00
2023-05-12T05:40:57.332Z,100.00
2023-05-12T05:43:26.994Z,100.00
2023-05-12T05:45:57.204Z,100.00
2023-05-12T05:48:26.676Z,100.00
2023-05-12T05:50:56.513Z,100.00
2023-05-12T05:53:25.860Z,100.00
2023-05-12T05:55:54.137Z,100.00
2023-05-12T05:58:23.061Z,100.00
2023-05-12T06:00:51.248Z,100.00
2023-05-12T06:03:20.329Z,100.00
2023-05-12T06:05:50.446Z,100.00
2023-05-12T06:08:25.928Z,100.00
2023-05-12T06:10:55.607Z,100.00
2023-05-12T06:13:23.542Z,100.00
2023-05-12T06:15:51.509Z,100.00
2023-05-12T06:18:19.146Z,100.00
2023-05-12T06:20:49.075Z,100.00
2023-05-12T06:23:18.257Z,100.00
2023-05-12T06:25:49.250Z,100.00
2023-05-12T06:28:16.913Z,100.00
2023-05-12T06:30:45.092Z,100.00
2023-05-12T06:33:12.792Z,100.00
2023-05-12T06:35:40.437Z,100.00
2023-05-12T06:38:08.492Z,100.00
2023-05-12T06:40:38.718Z,100.00
2023-05-12T06:43:07.441Z,100.00
2023-05-12T06:45:36.844Z,100.00
2023-05-12T06:48:06.190Z,100.00
2023-05-12T06:50:34.432Z,100.00
2023-05-12T06:53:05.359Z,100.00
2023-05-12T06:55:33.363Z,100.00
2023-05-12T06:58:03.092Z,100.00
2023-05-12T07:00:30.918Z,100.00
2023-05-12T07:02:59.696Z,100.00
2023-05-12T07:05:28.176Z,100.00
2023-05-12T07:07:56.540Z,100.00
2023-05-12T07:10:25.016Z,100.00
2023-05-12T07:12:53.081Z,100.00
2023-05-12T07:15:23.333Z,100.00
2023-05-12T07:17:51.568Z,100.00
2023-05-12T07:20:19.678Z,100.00
2023-05-12T07:22:47.844Z,100.00
2023-05-12T07:25:16.437Z,100.00
2023-05-12T07:27:44.990Z,100.00
2023-05-12T07:30:14.121Z,100.00
2023-05-12T07:32:45.113Z,100.00
2023-05-12T07:35:13.911Z,100.00
2023-05-12T07:37:42.540Z,100.00
2023-05-12T07:40:10.517Z,100.00
2023-05-12T07:42:38.960Z,100.00
2023-05-12T07:45:07.471Z,100.00
2023-05-12T07:47:35.996Z,100.00
2023-05-12T07:50:05.903Z,100.00
2023-05-12T07:52:33.962Z,100.00
2023-05-12T07:55:02.045Z,100.00
2023-05-12T07:57:30.038Z,100.00
2023-05-12T07:59:59.623Z,100.00
2023-05-12T08:02:27.402Z,100.00
2023-05-12T08:04:55.378Z,100.00
2023-05-12T08:07:24.859Z,100.00
2023-05-12T08:09:52.713Z,100.00
2023-05-12T08:12:21.688Z,100.00
2023-05-12T08:14:49.423Z,100.00
2023-05-12T08:17:17.401Z,100.00
2023-05-12T08:19:45.420Z,100.00
2023-05-12T08:22:13.272Z,100.00
2023-05-12T08:24:43.520Z,100.00
2023-05-12T08:27:11.335Z,100.00
2023-05-12T08:29:39.281Z,100.00
2023-05-12T08:32:07.589Z,100.00
2023-05-12T08:34:36.236Z,100.00
2023-05-12T08:37:04.293Z,100.00
2023-05-12T08:39:33.768Z,100.00
2023-05-12T08:42:10.891Z,100.00
2023-05-12T08:44:38.997Z,100.00
2023-05-12T08:47:07.822Z,100.00
2023-05-12T08:49:36.607Z,100.00
2023-05-12T08:52:07.673Z,100.00
2023-05-12T08:54:48.542Z,100.00
2023-05-12T08:57:22.709Z,100.00
2023-05-12T08:59:51.020Z,100.00
2023-05-12T09:02:19.898Z,100.00
2023-05-12T09:04:48.380Z,100.00
2023-05-12T09:07:17.098Z,100.00
2023-05-12T09:09:46.142Z,100.00
2023-05-12T09:12:16.929Z,100.00
2023-05-12T09:14:46.971Z,100.00
2023-05-12T09:17:15.076Z,100.00
2023-05-12T09:19:42.716Z,100.00
2023-05-12T09:22:14.862Z,100.00
2023-05-12T09:24:44.349Z,98.80
2023-05-12T09:27:12.146Z,100.00
2023-05-12T09:29:59.385Z,100.00
2023-05-12T09:32:33.908Z,100.00
2023-05-12T09:35:06.476Z,100.00
2023-05-12T09:37:34.748Z,100.00
2023-05-12T09:40:02.579Z,100.00
2023-05-12T09:42:31.022Z,100.00
2023-05-12T09:45:04.425Z,100.00
2023-05-12T09:47:35.652Z,100.00
2023-05-12T09:50:04.144Z,100.00
2023-05-12T09:52:33.059Z,100.00
2023-05-12T09:55:08.850Z,100.00
2023-05-12T09:57:39.274Z,100.00
2023-05-12T10:00:20.808Z,100.00
2023-05-12T10:02:57.611Z,100.00
2023-05-12T10:05:25.684Z,100.00
2023-05-12T10:07:55.383Z,100.00
2023-05-12T10:10:24.744Z,100.00
2023-05-12T10:12:52.492Z,100.00
2023-05-12T10:15:23.713Z,100.00
2023-05-12T10:17:53.944Z,100.00
2023-05-12T10:20:22.375Z,100.00
2023-05-12T10:22:51.008Z,100.00
2023-05-12T10:25:19.696Z,100.00
2023-05-12T10:27:48.073Z,100.00
2023-05-12T10:30:16.366Z,100.00
2023-05-12T10:32:45.586Z,100.00
2023-05-12T10:35:14.747Z,100.00
2023-05-12T10:37:43.775Z,100.00
2023-05-12T10:40:12.155Z,100.00
2023-05-12T10:42:40.839Z,100.00
2023-05-12T10:45:16.164Z,100.00
2023-05-12T10:47:46.036Z,100.00
2023-05-12T10:50:15.084Z,100.00
2023-05-12T10:52:53.598Z,100.00
2023-05-12T10:55:31.849Z,100.00
2023-05-12T10:58:05.919Z,100.00
2023-05-12T11:00:44.902Z,100.00
2023-05-12T11:03:18.381Z,100.00
2023-05-12T11:05:47.351Z,100.00
2023-05-12T11:08:17.766Z,100.00
2023-05-12T11:10:46.976Z,100.00
2023-05-12T11:13:15.181Z,100.00
2023-05-12T11:15:44.668Z,100.00
2023-05-12T11:18:12.747Z,100.00
2023-05-12T11:20:41.972Z,100.00
2023-05-12T11:23:09.870Z,100.00
2023-05-12T11:25:37.490Z,98.77
2023-05-12T11:28:05.144Z,90.91
2023-05-12T11:30:33.011Z,89.44
2023-05-12T11:33:01.558Z,84.76
2023-05-12T11:35:31.450Z,82.45
2023-05-12T11:38:03.004Z,88.49
2023-05-12T11:40:30.847Z,74.53
2023-05-12T11:43:01.500Z,76.17
2023-05-12T11:45:30.663Z,70.84
2023-05-12T11:48:07.860Z,78.43
2023-05-12T11:50:38.117Z,82.46
2023-05-12T11:53:10.758Z,92.39
2023-05-12T11:55:38.793Z,92.29
2023-05-12T11:58:06.370Z,94.44
2023-05-12T12:00:40.530Z,79.07
2023-05-12T12:03:12.677Z,79.80
2023-05-12T12:05:41.961Z,81.54
2023-05-12T12:08:13.533Z,94.46
2023-05-12T12:10:44.617Z,100.00
2023-05-12T12:13:12.908Z,100.00
2023-05-12T12:15:43.681Z,100.00
2023-05-12T12:18:11.494Z,100.00
2023-05-12T12:20:39.109Z,100.00
2023-05-12T12:23:06.848Z,100.00
2023-05-12T12:25:36.059Z,100.00
2023-05-12T12:28:04.094Z,100.00
2023-05-12T12:30:31.591Z,100.00
2023-05-12T12:32:59.370Z,100.00
2023-05-12T12:35:27.268Z,100.00
2023-05-12T12:37:55.365Z,100.00
2023-05-12T12:40:23.164Z,100.00
2023-05-12T12:42:52.135Z,100.00
2023-05-12T12:45:20.596Z,100.00
2023-05-12T12:47:52.308Z,100.00
2023-05-12T12:50:20.762Z,100.00
2023-05-12T12:52:49.118Z,100.00
2023-05-12T12:55:17.492Z,100.00
2023-05-12T12:57:46.154Z,100.00
2023-05-12T13:00:17.387Z,100.00
2023-05-12T13:02:46.284Z,100.00
2023-05-12T13:05:14.256Z,100.00
2023-05-12T13:07:42.325Z,100.00
2023-05-12T13:10:10.658Z,100.00
2023-05-12T13:12:38.944Z,100.00
2023-05-12T13:15:08.233Z,100.00
2023-05-12T13:17:37.839Z,100.00
2023-05-12T13:20:06.137Z,99.77
2023-05-12T13:22:34.171Z,91.30
2023-05-12T13:25:03.220Z,86.78
2023-05-12T13:27:32.366Z,81.30
2023-05-12T13:30:00.558Z,79.15
2023-05-12T13:32:29.424Z,74.57
2023-05-12T13:34:58.722Z,73.64
2023-05-12T13:37:27.204Z,72.42
2023-05-12T13:39:55.023Z,69.48
2023-05-12T13:42:22.661Z,62.62
2023-05-12T13:44:50.379Z,64.87
2023-05-12T13:47:18.552Z,69.90
2023-05-12T13:49:46.797Z,68.05
2023-05-12T13:52:15.861Z,69.31
2023-05-12T13:54:43.479Z,76.35
2023-05-12T13:57:11.831Z,82.72
2023-05-12T13:59:39.875Z,87.51
2023-05-12T14:02:09.863Z,85.53
2023-05-12T14:04:38.176Z,83.87
2023-05-12T14:07:08.302Z,82.51
2023-05-12T14:09:37.946Z,89.81
2023-05-12T14:12:05.966Z,93.29
2023-05-12T14:14:33.583Z,85.89
2023-05-12T14:17:01.646Z,83.62
2023-05-12T14:19:29.643Z,89.68
2023-05-12T14:21:57.354Z,92.63
2023-05-12T14:24:25.278Z,91.77
2023-05-12T14:26:55.745Z,81.98
2023-05-12T14:29:23.591Z,86.56
2023-05-12T14:31:51.332Z,88.39
2023-05-12T14:34:20.693Z,83.41
2023-05-12T14:36:48.352Z,81.78
2023-05-12T14:39:16.174Z,81.88
2023-05-12T14:41:43.855Z,82.31
2023-05-12T14:44:13.209Z,78.36
2023-05-12T14:46:41.295Z,76.49
2023-05-12T14:49:12.236Z,78.09
2023-05-12T14:51:40.019Z,75.83
2023-05-12T14:54:21.952Z,78.00
2023-05-12T14:56:52.685Z,76.59
2023-05-12T14:59:22.002Z,74.87
2023-05-12T15:01:49.815Z,76.58
2023-05-12T15:04:17.772Z,77.73
2023-05-12T15:06:45.513Z,75.95
2023-05-12T15:09:13.324Z,75.90
2023-05-12T15:11:44.440Z,76.28
2023-05-12T15:14:13.090Z,75.64
2023-05-12T15:16:42.172Z,80.84
2023-05-12T15:19:09.897Z,77.58
2023-05-12T15:21:37.576Z,81.89
2023-05-12T15:24:06.455Z,79.69
2023-05-12T15:26:35.264Z,83.14
2023-05-12T15:29:05.161Z,84.61
2023-05-12T15:31:32.983Z,87.11
2023-05-12T15:34:02.314Z,87.34
2023-05-12T15:36:31.008Z,89.57
2023-05-12T15:38:58.748Z,92.69
2023-05-12T15:41:26.693Z,89.60
2023-05-12T15:43:54.699Z,89.31
2023-05-12T15:46:22.740Z,78.36
2023-05-12T15:48:50.760Z,77.21
2023-05-12T15:51:19.964Z,68.61
2023-05-12T15:53:48.465Z,61.30
2023-05-12T15:56:16.194Z,55.76
2023-05-12T15:58:45.257Z,56.85
2023-05-12T16:01:13.219Z,63.89
2023-05-12T16:03:42.013Z,73.06
2023-05-12T16:06:10.132Z,74.53
2023-05-12T16:08:39.480Z,79.40
2023-05-12T16:11:07.669Z,85.65
2023-05-12T16:13:35.570Z,90.93
2023-05-12T16:16:03.728Z,94.53
2023-05-12T16:18:32.261Z,100.00
2023-05-12T16:21:02.222Z,100.00
2023-05-12T16:23:30.156Z,100.00
2023-05-12T16:26:00.178Z,100.00
2023-05-12T16:28:28.328Z,100.00
2023-05-12T16:30:56.496Z,100.00
2023-05-12T16:33:25.111Z,100.00
2023-05-12T16:35:53.049Z,100.00
2023-05-12T16:38:20.949Z,100.00
2023-05-12T16:40:49.327Z,100.00
2023-05-12T16:43:18.865Z,100.00
2023-05-12T16:45:46.696Z,100.00
2023-05-12T16:48:14.918Z,100.00
2023-05-12T16:50:42.658Z,100.00
2023-05-12T16:53:10.149Z,100.00
2023-05-12T16:55:37.892Z,100.00
2023-05-12T16:58:05.753Z,100.00
2023-05-12T17:00:34.872Z,100.00
2023-05-12T17:03:04.537Z,100.00
2023-05-12T17:05:33.321Z,100.00
2023-05-12T17:08:01.110Z,100.00
2023-05-12T17:10:29.389Z,100.00
2023-05-12T17:12:57.445Z,100.00
2023-05-12T17:15:25.154Z,100.00
2023-05-12T17:17:54.477Z,100.00
2023-05-12T17:20:23.218Z,100.00
2023-05-12T17:22:51.656Z,100.00
2023-05-12T17:25:20.011Z,100.00
2023-05-12T17:27:48.094Z,100.00
2023-05-12T17:30:16.442Z,100.00
2023-05-12T17:32:44.385Z,100.00
2023-05-12T17:35:14.162Z,100.00
2023-05-12T17:37:42.453Z,100.00
2023-05-12T17:40:15.061Z,100.00
2023-05-12T17:42:43.331Z,100.00
2023-05-12T17:45:11.729Z,100.00
2023-05-12T17:47:39.793Z,100.00
2023-05-12T17:50:10.618Z,100.00
2023-05-12T17:52:39.786Z,100.00
2023-05-12T17:55:08.304Z,100.00
2023-05-12T17:57:36.073Z,100.00
2023-05-12T18:00:09.633Z,100.00
2023-05-12T18:02:43.420Z,100.00
2023-05-12T18:05:11.518Z,100.00
2023-05-12T18:07:40.785Z,100.00
2023-05-12T18:10:08.723Z,100.00
2023-05-12T18:12:36.482Z,100.00
2023-05-12T18:15:04.789Z,100.00
2023-05-12T18:17:32.523Z,100.00
2023-05-12T18:20:00.532Z,100.00
2023-05-12T18:22:28.354Z,100.00
2023-05-12T18:24:57.151Z,100.00
2023-05-12T18:27:24.988Z,100.00
2023-05-12T18:29:52.806Z,100.00
2023-05-12T18:32:20.534Z,100.00
2023-05-12T18:34:48.217Z,100.00
2023-05-12T18:37:17.441Z,100.00
2023-05-12T18:39:47.137Z,100.00
2023-05-12T18:42:16.058Z,100.00
2023-05-12T18:44:43.518Z,100.00
2023-05-12T18:47:11.174Z,100.00
2023-05-12T18:49:38.925Z,100.00
2023-05-12T18:52:06.750Z,100.00
2023-05-12T18:54:34.875Z,100.00
2023-05-12T18:57:02.666Z,100.00
2023-05-12T18:59:32.680Z,100.00
2023-05-12T19:02:01.337Z,100.00
2023-05-12T19:04:29.372Z,100.00
2023-05-12T19:06:56.952Z,100.00
2023-05-12T19:09:24.683Z,100.00
2023-05-12T19:11:52.445Z,100.00
2023-05-12T19:14:21.127Z,100.00
2023-05-12T19:16:50.425Z,100.00
2023-05-12T19:19:18.685Z,100.00
2023-05-12T19:21:46.583Z,100.00
2023-05-12T19:24:15.255Z,100.00
2023-05-12T19:26:42.854Z,100.00
2023-05-12T19:29:12.026Z,100.00
2023-05-12T19:31:39.783Z,100.00
2023-05-12T19:34:08.926Z,100.00
2023-05-12T19:36:37.001Z,100.00
2023-05-12T19:39:04.721Z,100.00
2023-05-12T19:41:32.449Z,100.00
2023-05-12T19:44:00.479Z,100.00
2023-05-12T19:46:28.433Z,100.00
2023-05-12T19:48:56.208Z,100.00
2023-05-12T19:51:25.561Z,100.00
2023-05-12T19:53:53.106Z,100.00
2023-05-12T19:56:20.851Z,100.00
2023-05-12T19:58:48.923Z,100.00
2023-05-12T20:01:17.575Z,100.00
2023-05-12T20:03:45.656Z,100.00
2023-05-12T20:06:13.610Z,100.00
2023-05-12T20:08:42.608Z,100.00
2023-05-12T20:11:10.809Z,100.00
2023-05-12T20:13:38.701Z,100.00
2023-05-12T20:16:06.562Z,100.00
2023-05-12T20:18:34.327Z,100.00
2023-05-12T20:21:02.163Z,100.00
2023-05-12T20:23:30.021Z,100.00
2023-05-12T20:25:59.067Z,100.00
2023-05-12T20:28:26.885Z,100.00
2023-05-12T20:30:54.519Z,100.00
2023-05-12T20:33:22.144Z,100.00
2023-05-12T20:35:49.843Z,100.00
2023-05-12T20:38:17.714Z,100.00
2023-05-12T20:40:45.311Z,100.00
2023-05-12T20:43:14.453Z,100.00
2023-05-12T20:45:42.574Z,100.00
2023-05-12T20:48:10.707Z,100.00
2023-05-12T20:50:38.654Z,100.00
2023-05-12T20:53:06.386Z,100.00
2023-05-12T20:55:34.675Z,100.00
2023-05-12T20:58:02.324Z,100.00
2023-05-12T21:00:31.397Z,100.00
2023-05-12T21:02:59.738Z,100.00
2023-05-12T21:05:27.579Z,100.00
2023-05-12T21:07:55.542Z,100.00
2023-05-12T21:10:23.534Z,100.00
2023-05-12T21:12:52.056Z,100.00
2023-05-12T21:15:19.723Z,100.00
2023-05-12T21:17:48.898Z,100.00
2023-05-12T21:20:17.195Z,100.00
2023-05-12T21:22:44.881Z,100.00
2023-05-12T21:25:12.755Z,100.00
2023-05-12T21:27:41.488Z,100.00
2023-05-12T21:30:09.583Z,100.00
2023-05-12T21:32:37.258Z,100.00
2023-05-12T21:35:07.021Z,100.00
2023-05-12T21:37:34.755Z,100.00
2023-05-12T21:40:02.506Z,100.00
2023-05-12T21:42:30.454Z,100.00
2023-05-12T21:44:58.210Z,100.00
2023-05-12T21:47:25.951Z,100.00
2023-05-12T21:49:55.066Z,100.00
2023-05-12T21:52:24.383Z,100.00
2023-05-12T21:54:52.720Z,100.00
2023-05-12T21:57:20.945Z,100.00
2023-05-12T21:59:49.914Z,100.00
2023-05-12T22:02:17.969Z,100.00
2023-05-12T22:04:46.200Z,100.00
2023-05-12T22:07:13.865Z,100.00
2023-05-12T22:09:42.907Z,100.00
2023-05-12T22:12:15.134Z,100.00
2023-05-12T22:14:43.022Z,100.00
2023-05-12T22:17:11.145Z,100.00
2023-05-12T22:19:39.039Z,100.00
2023-05-12T22:22:06.621Z,100.00
2023-05-12T22:24:34.123Z,100.00
2023-05-12T22:27:03.224Z,100.00
2023-05-12T22:29:30.880Z,100.00
2023-05-12T22:31:58.648Z,100.00
2023-05-12T22:34:26.356Z,100.00
2023-05-12T22:36:54.071Z,100.00
2023-05-12T22:39:21.740Z,100.00
2023-05-12T22:41:49.381Z,100.00
2023-05-12T22:44:18.684Z,100.00
2023-05-12T22:46:46.680Z,100.00
2023-05-12T22:49:14.329Z,100.00
2023-05-12T22:51:42.017Z,100.00
2023-05-12T22:54:09.692Z,100.00
2023-05-12T22:56:37.644Z,100.00
2023-05-12T22:59:05.828Z,100.00
2023-05-12T23:01:34.837Z,100.00
2023-05-12T23:04:02.600Z,100.00
2023-05-12T23:06:31.184Z,100.00
2023-05-12T23:08:59.054Z,100.00
2023-05-12T23:11:27.061Z,100.00
2023-05-12T23:13:54.744Z,100.00
2023-05-12T23:16:23.879Z,100.00
2023-05-12T23:18:53.500Z,100.00
2023-05-12T23:21:21.520Z,100.00
2023-05-12T23:23:53.526Z,100.00
2023-05-12T23:26:24.239Z,100.00
2023-05-12T23:28:52.504Z,100.00
2023-05-12T23:31:22.919Z,100.00
2023-05-12T23:33:51.100Z,100.00
2023-05-12T23:36:21.111Z,100.00
2023-05-12T23:38:52.801Z,100.00
2023-05-12T23:41:22.004Z,100.00
2023-05-12T23:43:50.272Z,100.00
2023-05-12T23:46:18.479Z,100.00
2023-05-12T23:48:46.404Z,100.00
2023-05-12T23:51:14.560Z,100.00
2023-05-12T23:53:44.444Z,100.00
2023-05-12T23:56:12.601Z,100.00
2023-05-12T23:58:40.823Z,100.00
